Berea, Ohio
Current Conditions -  °F | °C
As of 1:51 AM on Saturday 25 Oct 2014 (Local Time) from KCLE Reporting Station
Overcast Overcast  
Wind Chill: 52°   Ceiling: 4800
Heat Index: 52°   Visibility: 10mi
Dew Point: 42°   Wind: 3mph
Humidity: 69%   Direction: 200°SSW
Pressure: 29.99"   Gusts: NA
Location:  41.37°N, 81.85°W
Report Text: KCLE 250551Z 20003KT 10SM OVC048 11/06 A2999 RMK AO2 SLP154 T01110056 10139 20106 58010
Loading
Personal Weather Stations






























Interactive Weather Map
Tropical Storm Tracking
New forecast layout! Learn more

10-Day Weather Forecast

Advertisements
Track Severe Weather on mobile